createdAt,value
2017-06-13T00:00:46.270Z,4.80
2017-06-13T00:03:15.193Z,8.73
2017-06-13T00:05:44.121Z,6.27
2017-06-13T00:08:13.039Z,7.90
2017-06-13T00:10:41.957Z,9.80
2017-06-13T00:13:17.101Z,9.73
2017-06-13T00:15:46.064Z,13.80
2017-06-13T00:18:14.957Z,5.03
2017-06-13T00:20:44.390Z,6.03
2017-06-13T00:23:14.184Z,7.63
2017-06-13T00:25:43.124Z,13.10
2017-06-13T00:28:12.323Z,6.80
2017-06-13T00:30:41.293Z,6.67
2017-06-13T00:33:11.086Z,8.73
2017-06-13T00:35:40.385Z,5.60
2017-06-13T00:38:09.818Z,7.70
2017-06-13T00:40:38.757Z,6.60
2017-06-13T00:43:08.442Z,8.83
2017-06-13T00:45:37.636Z,6.90
2017-06-13T00:48:06.682Z,8.10
2017-06-13T00:50:35.660Z,12.70
2017-06-13T00:53:04.687Z,10.60
2017-06-13T00:55:33.573Z,12.23
2017-06-13T00:58:02.863Z,7.93
2017-06-13T01:00:31.813Z,7.80
2017-06-13T01:03:00.646Z,9.07
2017-06-13T01:05:30.107Z,9.57
2017-06-13T01:07:58.931Z,11.10
2017-06-13T01:10:27.845Z,13.93
2017-06-13T01:12:57.001Z,8.97
2017-06-13T01:15:26.016Z,9.70
2017-06-13T01:17:55.135Z,9.23
2017-06-13T01:20:25.091Z,11.87
2017-06-13T01:22:54.015Z,7.77
2017-06-13T01:25:22.958Z,6.97
2017-06-13T01:27:51.902Z,10.70
2017-06-13T01:30:20.920Z,6.50
2017-06-13T01:32:49.833Z,11.53
2017-06-13T01:35:18.975Z,7.70
2017-06-13T01:37:47.817Z,8.80
2017-06-13T01:40:17.835Z,12.07
2017-06-13T01:42:46.766Z,11.33
2017-06-13T01:45:15.758Z,7.63
2017-06-13T01:47:44.682Z,8.33
2017-06-13T01:50:13.653Z,8.67
2017-06-13T01:52:42.529Z,9.57
2017-06-13T01:55:12.104Z,8.73
2017-06-13T01:57:40.965Z,9.27
2017-06-13T02:00:15.314Z,9.57
2017-06-13T02:02:44.379Z,8.73
2017-06-13T02:05:13.353Z,10.50
2017-06-13T02:07:42.256Z,10.93
2017-06-13T02:10:12.237Z,12.57
2017-06-13T02:12:41.297Z,7.17
2017-06-13T02:15:10.201Z,9.17
2017-06-13T02:17:39.045Z,12.77
2017-06-13T02:20:08.594Z,8.87
2017-06-13T02:22:37.548Z,11.37
2017-06-13T02:25:07.194Z,7.33
2017-06-13T02:27:36.044Z,10.07
2017-06-13T02:30:07.428Z,10.37
2017-06-13T02:32:36.316Z,10.03
2017-06-13T02:35:08.369Z,10.13
2017-06-13T02:37:37.227Z,10.93
2017-06-13T02:40:08.006Z,11.13
2017-06-13T02:42:37.611Z,11.53
2017-06-13T02:45:07.241Z,13.97
2017-06-13T02:47:36.748Z,17.53
2017-06-13T02:50:09.826Z,9.30
2017-06-13T02:52:39.228Z,10.40
2017-06-13T02:55:09.017Z,9.47
2017-06-13T02:57:37.878Z,12.57
2017-06-13T03:00:15.524Z,13.50
2017-06-13T03:02:44.425Z,7.97
2017-06-13T03:05:13.402Z,11.50
2017-06-13T03:07:42.530Z,10.63
2017-06-13T03:10:12.455Z,9.10
2017-06-13T03:12:41.322Z,9.00
2017-06-13T03:15:10.258Z,15.03
2017-06-13T03:17:39.096Z,12.00
2017-06-13T03:20:08.933Z,15.90
2017-06-13T03:22:37.784Z,14.60
2017-06-13T03:25:09.050Z,14.03
2017-06-13T03:27:37.920Z,12.03
2017-06-13T03:30:09.224Z,10.93
2017-06-13T03:32:38.131Z,11.20
2017-06-13T03:35:08.274Z,14.27
2017-06-13T03:37:37.098Z,10.97
2017-06-13T03:40:06.809Z,13.77
2017-06-13T03:42:36.108Z,22.53
2017-06-13T03:45:06.917Z,25.20
2017-06-13T03:47:36.210Z,8.90
2017-06-13T03:50:09.274Z,11.03
2017-06-13T03:52:38.101Z,16.70
2017-06-13T03:55:07.322Z,11.93
2017-06-13T03:57:36.210Z,12.07
2017-06-13T04:00:10.789Z,10.60
2017-06-13T04:03:59.026Z,11.50
2017-06-13T04:06:27.958Z,10.27
2017-06-13T04:08:56.889Z,9.23
2017-06-13T04:11:26.490Z,13.00
2017-06-13T04:13:55.350Z,8.83
2017-06-13T04:16:24.297Z,8.70
2017-06-13T04:18:53.137Z,9.20
2017-06-13T04:21:22.086Z,9.03
2017-06-13T04:23:50.950Z,13.07
2017-06-13T04:26:20.916Z,11.70
2017-06-13T04:28:49.766Z,9.17
2017-06-13T04:31:18.663Z,11.47
2017-06-13T04:33:47.569Z,11.00
2017-06-13T04:36:16.464Z,14.07
2017-06-13T04:38:45.337Z,9.30
2017-06-13T04:41:14.335Z,13.13
2017-06-13T04:43:43.294Z,12.83
2017-06-13T04:46:12.218Z,9.30
2017-06-13T04:48:41.104Z,10.80
2017-06-13T04:51:09.953Z,14.23
2017-06-13T04:53:38.805Z,9.03
2017-06-13T04:56:07.708Z,10.47
2017-06-13T04:58:36.539Z,7.70
2017-06-13T05:01:06.113Z,11.10
2017-06-13T05:03:34.953Z,9.23
2017-06-13T05:06:05.640Z,13.00
2017-06-13T05:08:34.537Z,8.10
2017-06-13T05:11:03.570Z,8.83
2017-06-13T05:13:32.482Z,10.70
2017-06-13T05:16:01.365Z,10.03
2017-06-13T05:18:30.233Z,12.20
2017-06-13T05:20:59.154Z,10.80
2017-06-13T05:23:28.132Z,9.00
2017-06-13T05:25:58.952Z,12.67
2017-06-13T05:28:28.204Z,11.37
2017-06-13T05:30:57.122Z,10.80
2017-06-13T05:33:26.205Z,11.93
2017-06-13T05:35:55.121Z,7.80
2017-06-13T05:38:24.020Z,9.17
2017-06-13T05:40:53.226Z,10.57
2017-06-13T05:43:22.139Z,9.73
2017-06-13T05:45:51.039Z,10.37
2017-06-13T05:48:20.777Z,9.60
2017-06-13T05:50:49.665Z,11.33
2017-06-13T05:53:18.603Z,10.80
2017-06-13T05:55:47.596Z,13.13
2017-06-13T05:58:16.604Z,11.57
2017-06-13T06:00:45.586Z,16.23
2017-06-13T06:03:14.636Z,15.80
2017-06-13T06:05:44.392Z,11.20
2017-06-13T06:08:14.151Z,8.77
2017-06-13T06:10:43.097Z,11.30
2017-06-13T06:13:13.377Z,9.30
2017-06-13T06:15:42.389Z,9.30
2017-06-13T06:18:11.278Z,8.63
2017-06-13T06:20:40.252Z,10.43
2017-06-13T06:23:09.242Z,11.27
2017-06-13T06:25:38.198Z,9.03
2017-06-13T06:28:08.029Z,10.37
2017-06-13T06:30:37.110Z,9.90
2017-06-13T06:33:09.070Z,10.37
2017-06-13T06:35:38.218Z,9.20
2017-06-13T06:38:07.529Z,11.40
2017-06-13T06:40:37.277Z,13.53
2017-06-13T06:43:07.050Z,13.23
2017-06-13T06:45:36.875Z,10.90
2017-06-13T06:48:09.368Z,10.40
2017-06-13T06:50:40.508Z,11.30
2017-06-13T06:53:10.021Z,13.33
2017-06-13T06:55:39.272Z,10.80
2017-06-13T06:58:09.216Z,12.37
2017-06-13T07:00:38.261Z,10.23
2017-06-13T07:03:09.610Z,12.70
2017-06-13T07:05:38.739Z,12.57
2017-06-13T07:08:08.153Z,9.63
2017-06-13T07:10:38.080Z,9.53
2017-06-13T07:13:08.603Z,10.50
2017-06-13T07:15:38.364Z,12.37
2017-06-13T07:18:07.602Z,11.90
2017-06-13T07:20:36.570Z,10.53
2017-06-13T07:23:05.612Z,12.07
2017-06-13T07:25:34.543Z,10.93
2017-06-13T07:28:10.198Z,9.77
2017-06-13T07:30:40.544Z,9.03
2017-06-13T07:33:09.836Z,9.20
2017-06-13T07:35:39.902Z,12.17
2017-06-13T07:38:09.094Z,11.57
2017-06-13T07:40:41.397Z,9.93
2017-06-13T07:43:10.273Z,9.57
2017-06-13T07:45:41.022Z,13.10
2017-06-13T07:48:10.792Z,8.30
2017-06-13T07:50:43.384Z,15.60
2017-06-13T07:53:13.258Z,14.23
2017-06-13T07:55:44.564Z,9.43
2017-06-13T07:58:13.716Z,9.47
2017-06-13T08:00:43.452Z,11.40
2017-06-13T08:03:12.605Z,11.60
2017-06-13T08:05:42.585Z,10.17
2017-06-13T08:08:11.778Z,7.73
2017-06-13T08:10:40.735Z,10.60
2017-06-13T08:13:12.061Z,9.90
2017-06-13T08:15:42.666Z,11.07
2017-06-13T08:18:13.460Z,10.53
2017-06-13T08:20:44.518Z,12.90
2017-06-13T08:23:14.568Z,11.67
2017-06-13T08:25:44.557Z,9.73
2017-06-13T08:28:14.585Z,9.10
2017-06-13T08:30:44.389Z,8.97
2017-06-13T08:33:13.480Z,12.50
2017-06-13T08:35:44.277Z,15.40
2017-06-13T08:38:13.275Z,9.00
2017-06-13T08:40:42.347Z,8.20
2017-06-13T08:43:11.320Z,12.10
2017-06-13T08:45:41.745Z,8.73
2017-06-13T08:48:11.519Z,12.20
2017-06-13T08:50:41.783Z,11.23
2017-06-13T08:53:14.872Z,10.40
2017-06-13T08:55:43.979Z,11.53
2017-06-13T08:58:13.790Z,13.10
2017-06-13T09:00:49.553Z,12.30
2017-06-13T09:03:19.612Z,8.23
2017-06-13T09:05:49.299Z,9.43
2017-06-13T09:08:18.409Z,10.23
2017-06-13T09:10:48.641Z,12.53
2017-06-13T09:13:19.455Z,7.50
2017-06-13T09:15:48.576Z,11.07
2017-06-13T09:19:22.061Z,7.33
2017-06-13T09:21:55.454Z,8.93
2017-06-13T09:24:27.701Z,9.60
2017-06-13T09:26:57.998Z,7.57
2017-06-13T09:29:28.396Z,11.33
2017-06-13T09:31:57.963Z,11.40
2017-06-13T09:34:27.061Z,17.83
2017-06-13T09:36:58.136Z,9.30
2017-06-13T09:39:28.284Z,9.67
2017-06-13T09:41:58.325Z,8.63
2017-06-13T09:44:28.478Z,11.13
2017-06-13T09:46:58.123Z,9.57
2017-06-13T09:49:28.356Z,14.50
2017-06-13T09:51:57.305Z,13.13
2017-06-13T09:54:29.456Z,10.63
2017-06-13T09:56:58.742Z,9.70
2017-06-13T09:59:29.160Z,8.90
2017-06-13T10:01:58.369Z,12.43
2017-06-13T10:04:28.098Z,8.90
2017-06-13T10:06:57.228Z,10.70
2017-06-13T10:09:29.529Z,8.97
2017-06-13T10:11:59.365Z,10.00
2017-06-13T10:14:28.430Z,9.33
2017-06-13T10:16:57.682Z,9.17
2017-06-13T10:19:30.689Z,9.93
2017-06-13T10:21:59.624Z,10.37
2017-06-13T10:24:36.787Z,9.20
2017-06-13T10:27:12.544Z,13.90
2017-06-13T10:29:41.580Z,10.20
2017-06-13T10:32:16.669Z,9.40
2017-06-13T10:34:46.505Z,11.80
2017-06-13T10:37:16.685Z,9.23
2017-06-13T10:39:45.829Z,9.97
2017-06-13T10:42:17.439Z,10.20
2017-06-13T10:44:46.718Z,8.10
2017-06-13T10:47:16.333Z,11.60
2017-06-13T10:49:47.856Z,7.30
2017-06-13T10:52:16.952Z,8.10
2017-06-13T10:54:46.043Z,7.37
2017-06-13T10:57:16.384Z,8.10
2017-06-13T10:59:45.541Z,6.90
2017-06-13T11:02:14.886Z,6.37
2017-06-13T11:04:44.176Z,5.67
2017-06-13T11:07:13.324Z,5.60
2017-06-13T11:09:42.666Z,7.63
2017-06-13T11:12:11.894Z,7.87
2017-06-13T11:14:46.335Z,5.93
2017-06-13T11:17:17.660Z,9.27
2017-06-13T11:19:46.713Z,8.20
2017-06-13T11:22:16.648Z,7.40
2017-06-13T11:24:47.190Z,8.60
2017-06-13T11:27:26.153Z,8.87
2017-06-13T11:29:55.509Z,7.97
2017-06-13T11:32:29.603Z,7.20
2017-06-13T11:37:40.122Z,9.40
2017-06-13T11:40:14.937Z,7.03
2017-06-13T11:42:44.684Z,8.17
2017-06-13T11:45:15.261Z,11.33
2017-06-13T11:47:44.783Z,6.10
2017-06-13T11:50:19.081Z,6.00
2017-06-13T11:52:49.148Z,10.00
2017-06-13T11:55:20.126Z,6.23
2017-06-13T11:57:50.211Z,5.67
2017-06-13T12:00:24.822Z,5.63
2017-06-13T12:02:55.299Z,8.77
2017-06-13T12:05:27.425Z,6.33
2017-06-13T12:07:56.413Z,5.13
2017-06-13T12:10:26.840Z,8.07
2017-06-13T12:12:55.889Z,6.70
2017-06-13T12:15:28.042Z,5.97
2017-06-13T12:17:57.000Z,6.27
2017-06-13T12:20:30.122Z,5.73
2017-06-13T12:22:59.103Z,5.67
2017-06-13T12:25:29.135Z,6.30
2017-06-13T12:27:59.982Z,5.80
2017-06-13T12:30:30.094Z,8.97
2017-06-13T12:33:10.378Z,6.60
2017-06-13T12:35:39.436Z,8.10
2017-06-13T12:38:12.050Z,7.07
2017-06-13T12:40:51.684Z,7.77
2017-06-13T12:43:23.894Z,7.50
2017-06-13T12:45:55.119Z,8.00
2017-06-13T12:48:25.990Z,7.20
2017-06-13T12:50:56.490Z,12.00
2017-06-13T12:53:29.149Z,7.60
2017-06-13T12:55:58.306Z,6.30
2017-06-13T12:58:32.396Z,8.73
2017-06-13T13:01:01.613Z,8.60
2017-06-13T13:03:36.197Z,8.40
2017-06-13T13:06:08.547Z,7.53
2017-06-13T13:08:39.232Z,10.90
2017-06-13T13:11:12.866Z,8.30
2017-06-13T13:13:44.619Z,7.83
2017-06-13T13:19:15.316Z,8.13
2017-06-13T13:21:54.387Z,7.73
2017-06-13T13:24:26.998Z,7.93
2017-06-13T13:26:58.147Z,5.20
2017-06-13T13:29:28.070Z,5.50
2017-06-13T13:31:57.254Z,6.67
2017-06-13T13:34:28.689Z,5.53
2017-06-13T13:36:58.233Z,7.00
2017-06-13T13:39:32.062Z,5.93
2017-06-13T13:42:01.099Z,7.30
2017-06-13T13:44:30.201Z,6.10
2017-06-13T13:47:00.034Z,9.63
2017-06-13T13:49:32.277Z,6.10
2017-06-13T13:52:01.527Z,4.67
2017-06-13T13:54:35.779Z,6.77
2017-06-13T13:57:17.146Z,5.57
2017-06-13T13:59:47.870Z,4.50
2017-06-13T14:02:17.926Z,5.90
2017-06-13T14:04:53.413Z,5.80
2017-06-13T14:07:23.182Z,6.13
2017-06-13T14:09:52.397Z,4.23
2017-06-13T14:12:25.395Z,3.83
2017-06-13T14:14:54.966Z,4.67
2017-06-13T14:17:36.787Z,5.20
2017-06-13T14:20:20.357Z,4.47
2017-06-13T14:22:50.804Z,6.63
2017-06-13T14:25:20.546Z,4.73
2017-06-13T14:27:58.803Z,4.70
2017-06-13T14:30:33.944Z,6.37
2017-06-13T14:33:05.082Z,9.33
2017-06-13T14:38:14.538Z,5.93
2017-06-13T14:40:45.428Z,6.33
2017-06-13T14:43:17.198Z,6.93
2017-06-13T14:45:49.245Z,5.07
2017-06-13T14:48:29.728Z,6.30
2017-06-13T14:51:02.494Z,8.07
2017-06-13T14:53:36.013Z,4.63
2017-06-13T14:56:10.077Z,4.93
2017-06-13T14:58:41.727Z,6.80
2017-06-13T15:01:11.797Z,7.20
2017-06-13T15:03:42.103Z,8.00
2017-06-13T15:06:11.849Z,12.00
2017-06-13T15:08:44.527Z,9.23
2017-06-13T15:11:25.452Z,8.33
2017-06-13T15:13:57.770Z,9.87
2017-06-13T15:16:45.779Z,8.60
2017-06-13T15:19:17.872Z,9.03
2017-06-13T15:21:49.377Z,9.40
2017-06-13T15:24:24.970Z,9.53
2017-06-13T15:26:59.411Z,9.23
2017-06-13T15:29:32.376Z,9.03
2017-06-13T15:32:04.304Z,8.30
2017-06-13T15:34:33.684Z,8.27
2017-06-13T15:37:09.128Z,9.23
2017-06-13T15:39:38.328Z,9.43
2017-06-13T15:42:11.209Z,23.13
2017-06-13T15:44:41.756Z,9.07
2017-06-13T15:47:27.788Z,9.27
2017-06-13T15:49:57.117Z,7.50
2017-06-13T15:52:28.936Z,12.07
2017-06-13T15:54:59.048Z,11.03
2017-06-13T15:57:34.453Z,6.57
2017-06-13T16:00:41.014Z,6.30
2017-06-13T16:03:14.215Z,6.87
2017-06-13T16:05:51.469Z,6.90
2017-06-13T16:08:27.948Z,5.23
2017-06-13T16:13:57.090Z,7.03
2017-06-13T16:19:18.043Z,5.07
2017-06-13T16:21:53.706Z,5.80
2017-06-13T16:24:28.858Z,5.73
2017-06-13T16:27:00.533Z,4.43
2017-06-13T16:29:30.691Z,4.60
2017-06-13T16:32:09.316Z,3.57
2017-06-13T16:34:40.839Z,5.30
2017-06-13T16:39:55.135Z,8.73
2017-06-13T16:42:26.781Z,3.90
2017-06-13T16:44:55.869Z,3.10
2017-06-13T16:47:25.801Z,4.20
2017-06-13T16:49:55.849Z,4.20
2017-06-13T16:52:26.627Z,3.43
2017-06-13T16:54:57.110Z,3.50
2017-06-13T16:57:28.450Z,3.97
2017-06-13T16:59:57.639Z,5.57
2017-06-13T17:02:28.530Z,4.03
2017-06-13T17:04:58.230Z,4.47
2017-06-13T17:07:28.492Z,6.30
2017-06-13T17:09:57.623Z,3.20
2017-06-13T17:12:27.641Z,3.10
2017-06-13T17:14:56.663Z,2.80
2017-06-13T17:17:35.227Z,4.17
2017-06-13T17:20:14.897Z,2.97
2017-06-13T17:22:44.679Z,2.80
2017-06-13T17:25:25.364Z,2.93
2017-06-13T17:27:56.488Z,3.00
2017-06-13T17:30:30.877Z,5.10
2017-06-13T17:33:01.972Z,5.33
2017-06-13T17:35:35.413Z,3.87
2017-06-13T17:38:09.961Z,8.10
2017-06-13T17:40:41.375Z,4.27
2017-06-13T17:43:11.855Z,6.10
2017-06-13T17:45:41.744Z,4.90
2017-06-13T17:48:12.943Z,5.07
2017-06-13T17:50:43.118Z,5.33
2017-06-13T17:53:14.278Z,7.33
2017-06-13T17:55:44.468Z,9.23
2017-06-13T17:58:19.219Z,8.13
2017-06-13T18:00:50.412Z,7.73
2017-06-13T18:03:20.863Z,8.20
2017-06-13T18:05:52.422Z,5.27
2017-06-13T18:08:21.647Z,8.27
2017-06-13T18:10:50.868Z,6.40
2017-06-13T18:13:23.111Z,8.23
2017-06-13T18:15:56.350Z,11.03
2017-06-13T18:18:29.483Z,7.60
2017-06-13T18:21:02.496Z,6.20
2017-06-13T18:23:35.424Z,19.70
2017-06-13T18:26:06.404Z,10.77
2017-06-13T18:28:36.239Z,5.63
2017-06-13T18:31:09.800Z,6.10
2017-06-13T18:33:39.575Z,8.37
2017-06-13T18:36:10.838Z,5.40
2017-06-13T18:38:42.217Z,5.90
2017-06-13T18:41:12.112Z,6.83
2017-06-13T18:43:41.183Z,6.73
2017-06-13T18:46:11.254Z,5.43
2017-06-13T18:48:40.482Z,5.10
2017-06-13T18:51:11.590Z,5.93
2017-06-13T18:53:40.988Z,7.10
2017-06-13T18:56:11.231Z,7.63
2017-06-13T18:58:40.610Z,6.20
2017-06-13T19:01:10.867Z,5.30
2017-06-13T19:03:40.735Z,7.80
2017-06-13T19:06:13.346Z,6.37
2017-06-13T19:08:42.381Z,4.63
2017-06-13T19:11:13.485Z,5.00
2017-06-13T19:13:42.577Z,5.93
2017-06-13T19:16:12.638Z,4.83
2017-06-13T19:18:42.430Z,6.13
2017-06-13T19:21:11.680Z,9.53
2017-06-13T19:23:41.811Z,4.63
2017-06-13T19:26:12.860Z,6.20
2017-06-13T19:28:42.892Z,5.23
2017-06-13T19:31:14.761Z,5.37
2017-06-13T19:33:43.746Z,8.40
2017-06-13T19:36:12.760Z,6.17
2017-06-13T19:38:41.812Z,6.30
2017-06-13T19:41:10.975Z,6.17
2017-06-13T19:43:40.708Z,5.47
2017-06-13T19:46:09.737Z,4.90
2017-06-13T19:48:44.394Z,8.20
2017-06-13T19:51:14.370Z,6.47
2017-06-13T19:53:43.329Z,5.63
2017-06-13T19:56:15.844Z,6.73
2017-06-13T19:58:46.443Z,9.20
2017-06-13T20:01:17.421Z,5.73
2017-06-13T20:03:47.028Z,7.17
2017-06-13T20:06:16.222Z,6.23
2017-06-13T20:08:46.919Z,5.43
2017-06-13T20:11:17.429Z,5.90
2017-06-13T20:13:46.401Z,5.80
2017-06-13T20:16:15.735Z,5.60
2017-06-13T20:18:44.775Z,5.80
2017-06-13T20:21:17.944Z,5.60
2017-06-13T20:23:51.224Z,5.50
2017-06-13T20:26:25.296Z,5.23
2017-06-13T20:28:59.537Z,5.30
2017-06-13T20:31:29.924Z,5.53
2017-06-13T20:33:59.960Z,6.87
2017-06-13T20:36:31.438Z,5.07
2017-06-13T20:39:08.370Z,5.90
2017-06-13T20:41:37.714Z,7.17
2017-06-13T20:44:09.796Z,6.43
2017-06-13T20:46:39.876Z,6.17
2017-06-13T20:49:10.709Z,6.10
2017-06-13T20:51:40.761Z,7.43
2017-06-13T20:54:11.014Z,6.13
2017-06-13T20:56:42.033Z,6.57
2017-06-13T20:59:17.856Z,5.90
2017-06-13T21:01:47.180Z,6.17
2017-06-13T21:04:16.341Z,6.57
2017-06-13T21:06:47.183Z,7.10
2017-06-13T21:09:20.338Z,6.80
2017-06-13T21:11:50.948Z,7.67
2017-06-13T21:14:22.055Z,8.03
2017-06-13T21:16:51.042Z,6.53
2017-06-13T21:19:20.135Z,6.63
2017-06-13T21:21:49.143Z,7.40
2017-06-13T21:24:19.529Z,6.63
2017-06-13T21:26:48.711Z,8.37
2017-06-13T21:29:18.753Z,6.63
2017-06-13T21:31:48.358Z,6.60
2017-06-13T21:34:19.162Z,6.37
2017-06-13T21:36:48.160Z,5.83
2017-06-13T21:39:17.192Z,9.23
2017-06-13T21:41:46.087Z,6.60
2017-06-13T21:44:15.395Z,7.77
2017-06-13T21:46:44.291Z,7.53
2017-06-13T21:49:13.352Z,6.17
2017-06-13T21:51:42.307Z,7.03
2017-06-13T21:54:12.779Z,6.83
2017-06-13T21:56:41.694Z,7.07
2017-06-13T21:59:11.505Z,7.43
2017-06-13T22:01:40.477Z,7.22
2017-06-13T22:04:09.426Z,8.07
2017-06-13T22:06:38.319Z,6.60
2017-06-13T22:09:07.620Z,7.33
2017-06-13T22:11:38.880Z,6.90
2017-06-13T22:14:08.842Z,8.27
2017-06-13T22:16:37.745Z,8.77
2017-06-13T22:19:06.931Z,10.07
2017-06-13T22:21:35.849Z,7.37
2017-06-13T22:24:04.787Z,7.85
2017-06-13T22:26:33.633Z,9.73
2017-06-13T22:29:02.537Z,7.63
2017-06-13T22:31:31.516Z,7.97
2017-06-13T22:34:00.396Z,9.60
2017-06-13T22:36:29.383Z,7.90
2017-06-13T22:38:58.292Z,7.50
2017-06-13T22:41:27.307Z,7.90
2017-06-13T22:43:56.232Z,7.53
2017-06-13T22:46:25.135Z,8.33
2017-06-13T22:48:54.138Z,7.87
2017-06-13T22:51:23.118Z,7.80
2017-06-13T22:53:52.718Z,7.72
2017-06-13T22:56:21.615Z,8.33
2017-06-13T22:58:51.234Z,8.40
2017-06-13T23:01:20.226Z,9.43
2017-06-13T23:03:50.049Z,8.73
2017-06-13T23:06:19.034Z,8.90
2017-06-13T23:08:47.933Z,8.37
2017-06-13T23:11:16.838Z,9.80
2017-06-13T23:13:45.777Z,7.90
2017-06-13T23:16:15.209Z,8.10
2017-06-13T23:18:44.111Z,8.50
2017-06-13T23:21:13.260Z,9.45
2017-06-13T23:23:42.997Z,11.00
2017-06-13T23:26:12.668Z,8.43
2017-06-13T23:28:41.696Z,8.05
2017-06-13T23:31:12.248Z,9.10
2017-06-13T23:33:41.238Z,8.07
2017-06-13T23:36:10.202Z,8.95
2017-06-13T23:38:39.063Z,9.30
2017-06-13T23:41:08.054Z,7.90
2017-06-13T23:43:37.282Z,8.38
2017-06-13T23:46:06.233Z,7.90
2017-06-13T23:48:35.154Z,7.82
2017-06-13T23:51:05.176Z,12.35
2017-06-13T23:53:34.170Z,9.15
2017-06-13T23:56:03.198Z,9.50
2017-06-13T23:58:32.095Z,15.05
